<?xml version="1.0" encoding="UTF-8" standalone="no" ?>
<gpx xmlns="http://www.topografix.com/GPX/1/1" xmlns:xsi="http://www.w3.org/2001/XMLSchema-instance" xsi:schemaLocation="http://www.topografix.com/GPX/1/1 http://www.topografix.com/GPX/1/1/gpx.xsd" version="1.1" creator="VisuGPX - https://www.visugpx.com">
  <metadata>
    <name>Chateau Renard- Couloir N du Rif du bois Ousselat</name>
    <desc><![CDATA[grp_trc:]]></desc>
  </metadata>
  <trk>
    <name><![CDATA[6 avr. 2022]]></name>
    <cmt><![CDATA[07:48:37]]></cmt>
    <desc><![CDATA[comment ...]]></desc>
    <trkseg>
      <trkpt lat="44.7191" lon="6.90401">
        <ele>1987</ele>
        <time>2022-04-06T05:48:29Z</time>
      </trkpt>
      <trkpt lat="44.71898" lon="6.90373">
        <ele>1983</ele>
        <time>2022-04-06T05:49:35Z</time>
      </trkpt>
      <trkpt lat="44.71876" lon="6.9038">
        <ele>1991</ele>
        <time>2022-04-06T05:50:07Z</time>
      </trkpt>
      <trkpt lat="44.71853" lon="6.90384">
        <ele>1990</ele>
        <time>2022-04-06T05:50:47Z</time>
      </trkpt>
      <trkpt lat="44.71831" lon="6.90374">
        <ele>1992</ele>
        <time>2022-04-06T05:51:13Z</time>
      </trkpt>
      <trkpt lat="44.71808" lon="6.90373">
        <ele>1994</ele>
        <time>2022-04-06T05:51:39Z</time>
      </trkpt>
      <trkpt lat="44.71787" lon="6.90386">
        <ele>2006</ele>
        <time>2022-04-06T05:53:31Z</time>
      </trkpt>
      <trkpt lat="44.71765" lon="6.90396">
        <ele>2009</ele>
        <time>2022-04-06T05:53:58Z</time>
      </trkpt>
      <trkpt lat="44.71745" lon="6.9041">
        <ele>2012</ele>
        <time>2022-04-06T05:54:20Z</time>
      </trkpt>
      <trkpt lat="44.71723" lon="6.9042">
        <ele>2015</ele>
        <time>2022-04-06T05:54:45Z</time>
      </trkpt>
      <trkpt lat="44.71704" lon="6.90402">
        <ele>2016</ele>
        <time>2022-04-06T05:55:13Z</time>
      </trkpt>
      <trkpt lat="44.71684" lon="6.90387">
        <ele>2020</ele>
        <time>2022-04-06T05:55:39Z</time>
      </trkpt>
      <trkpt lat="44.71667" lon="6.90366">
        <ele>2027</ele>
        <time>2022-04-06T05:56:11Z</time>
      </trkpt>
      <trkpt lat="44.71654" lon="6.9034">
        <ele>2033</ele>
        <time>2022-04-06T05:56:51Z</time>
      </trkpt>
      <trkpt lat="44.71635" lon="6.90321">
        <ele>2039</ele>
        <time>2022-04-06T05:57:35Z</time>
      </trkpt>
      <trkpt lat="44.71613" lon="6.90327">
        <ele>2047</ele>
        <time>2022-04-06T05:58:08Z</time>
      </trkpt>
      <trkpt lat="44.71608" lon="6.90358">
        <ele>2050</ele>
        <time>2022-04-06T05:58:36Z</time>
      </trkpt>
      <trkpt lat="44.71592" lon="6.90381">
        <ele>2054</ele>
        <time>2022-04-06T05:59:10Z</time>
      </trkpt>
      <trkpt lat="44.71573" lon="6.90364">
        <ele>2057</ele>
        <time>2022-04-06T05:59:46Z</time>
      </trkpt>
      <trkpt lat="44.71562" lon="6.90392">
        <ele>2073</ele>
        <time>2022-04-06T06:01:46Z</time>
      </trkpt>
      <trkpt lat="44.71549" lon="6.90418">
        <ele>2085</ele>
        <time>2022-04-06T06:02:21Z</time>
      </trkpt>
      <trkpt lat="44.71528" lon="6.90404">
        <ele>2089</ele>
        <time>2022-04-06T06:03:16Z</time>
      </trkpt>
      <trkpt lat="44.71515" lon="6.9043">
        <ele>2093</ele>
        <time>2022-04-06T06:03:52Z</time>
      </trkpt>
      <trkpt lat="44.715" lon="6.90454">
        <ele>2097</ele>
        <time>2022-04-06T06:04:34Z</time>
      </trkpt>
      <trkpt lat="44.71483" lon="6.90433">
        <ele>2105</ele>
        <time>2022-04-06T06:05:24Z</time>
      </trkpt>
      <trkpt lat="44.71479" lon="6.90401">
        <ele>2110</ele>
        <time>2022-04-06T06:06:06Z</time>
      </trkpt>
      <trkpt lat="44.71465" lon="6.90371">
        <ele>2115</ele>
        <time>2022-04-06T06:06:49Z</time>
      </trkpt>
      <trkpt lat="44.71458" lon="6.90341">
        <ele>2120</ele>
        <time>2022-04-06T06:07:33Z</time>
      </trkpt>
      <trkpt lat="44.71437" lon="6.90351">
        <ele>2124</ele>
        <time>2022-04-06T06:08:04Z</time>
      </trkpt>
      <trkpt lat="44.71416" lon="6.90337">
        <ele>2133</ele>
        <time>2022-04-06T06:08:57Z</time>
      </trkpt>
      <trkpt lat="44.714" lon="6.90314">
        <ele>2141</ele>
        <time>2022-04-06T06:09:30Z</time>
      </trkpt>
      <trkpt lat="44.71377" lon="6.90318">
        <ele>2156</ele>
        <time>2022-04-06T06:10:51Z</time>
      </trkpt>
      <trkpt lat="44.71354" lon="6.90317">
        <ele>2164</ele>
        <time>2022-04-06T06:12:09Z</time>
      </trkpt>
      <trkpt lat="44.71342" lon="6.90289">
        <ele>2159</ele>
        <time>2022-04-06T06:12:39Z</time>
      </trkpt>
      <trkpt lat="44.71357" lon="6.90261">
        <ele>2169</ele>
        <time>2022-04-06T06:13:10Z</time>
      </trkpt>
      <trkpt lat="44.71335" lon="6.90266">
        <ele>2185</ele>
        <time>2022-04-06T06:14:12Z</time>
      </trkpt>
      <trkpt lat="44.7134" lon="6.90235">
        <ele>2194</ele>
        <time>2022-04-06T06:15:20Z</time>
      </trkpt>
      <trkpt lat="44.71335" lon="6.90204">
        <ele>2197</ele>
        <time>2022-04-06T06:16:13Z</time>
      </trkpt>
      <trkpt lat="44.71321" lon="6.90178">
        <ele>2204</ele>
        <time>2022-04-06T06:17:46Z</time>
      </trkpt>
      <trkpt lat="44.71313" lon="6.90148">
        <ele>2207</ele>
        <time>2022-04-06T06:18:42Z</time>
      </trkpt>
      <trkpt lat="44.71301" lon="6.90121">
        <ele>2209</ele>
        <time>2022-04-06T06:19:15Z</time>
      </trkpt>
      <trkpt lat="44.71279" lon="6.9011">
        <ele>2225</ele>
        <time>2022-04-06T06:22:11Z</time>
      </trkpt>
      <trkpt lat="44.71258" lon="6.90123">
        <ele>2229</ele>
        <time>2022-04-06T06:22:50Z</time>
      </trkpt>
      <trkpt lat="44.7127" lon="6.90095">
        <ele>2236</ele>
        <time>2022-04-06T06:23:33Z</time>
      </trkpt>
      <trkpt lat="44.71249" lon="6.90086">
        <ele>2243</ele>
        <time>2022-04-06T06:24:38Z</time>
      </trkpt>
      <trkpt lat="44.71231" lon="6.90106">
        <ele>2248</ele>
        <time>2022-04-06T06:25:12Z</time>
      </trkpt>
      <trkpt lat="44.7122" lon="6.90134">
        <ele>2254</ele>
        <time>2022-04-06T06:25:47Z</time>
      </trkpt>
      <trkpt lat="44.71215" lon="6.90103">
        <ele>2266</ele>
        <time>2022-04-06T06:26:54Z</time>
      </trkpt>
      <trkpt lat="44.71203" lon="6.90076">
        <ele>2266</ele>
        <time>2022-04-06T06:27:46Z</time>
      </trkpt>
      <trkpt lat="44.71179" lon="6.90077">
        <ele>2278</ele>
        <time>2022-04-06T06:29:25Z</time>
      </trkpt>
      <trkpt lat="44.71163" lon="6.90098">
        <ele>2285</ele>
        <time>2022-04-06T06:30:22Z</time>
      </trkpt>
      <trkpt lat="44.71141" lon="6.90088">
        <ele>2301</ele>
        <time>2022-04-06T06:32:22Z</time>
      </trkpt>
      <trkpt lat="44.71125" lon="6.90066">
        <ele>2301</ele>
        <time>2022-04-06T06:33:12Z</time>
      </trkpt>
      <trkpt lat="44.71112" lon="6.90039">
        <ele>2310</ele>
        <time>2022-04-06T06:34:15Z</time>
      </trkpt>
      <trkpt lat="44.71091" lon="6.90052">
        <ele>2332</ele>
        <time>2022-04-06T06:35:35Z</time>
      </trkpt>
      <trkpt lat="44.71069" lon="6.90062">
        <ele>2350</ele>
        <time>2022-04-06T06:37:33Z</time>
      </trkpt>
      <trkpt lat="44.71056" lon="6.90037">
        <ele>2349</ele>
        <time>2022-04-06T06:38:39Z</time>
      </trkpt>
      <trkpt lat="44.7105" lon="6.90007">
        <ele>2350</ele>
        <time>2022-04-06T06:39:28Z</time>
      </trkpt>
      <trkpt lat="44.71043" lon="6.89973">
        <ele>2351</ele>
        <time>2022-04-06T06:40:25Z</time>
      </trkpt>
      <trkpt lat="44.7103" lon="6.89999">
        <ele>2368</ele>
        <time>2022-04-06T06:44:52Z</time>
      </trkpt>
      <trkpt lat="44.7101" lon="6.90015">
        <ele>2375</ele>
        <time>2022-04-06T06:46:31Z</time>
      </trkpt>
      <trkpt lat="44.70997" lon="6.8999">
        <ele>2370</ele>
        <time>2022-04-06T06:47:31Z</time>
      </trkpt>
      <trkpt lat="44.70977" lon="6.89974">
        <ele>2387</ele>
        <time>2022-04-06T06:50:02Z</time>
      </trkpt>
      <trkpt lat="44.7097" lon="6.90005">
        <ele>2403</ele>
        <time>2022-04-06T06:52:34Z</time>
      </trkpt>
      <trkpt lat="44.70978" lon="6.90035">
        <ele>2411</ele>
        <time>2022-04-06T06:53:02Z</time>
      </trkpt>
      <trkpt lat="44.70981" lon="6.90067">
        <ele>2418</ele>
        <time>2022-04-06T06:54:04Z</time>
      </trkpt>
      <trkpt lat="44.70988" lon="6.90097">
        <ele>2433</ele>
        <time>2022-04-06T06:54:37Z</time>
      </trkpt>
      <trkpt lat="44.70991" lon="6.90131">
        <ele>2431</ele>
        <time>2022-04-06T06:55:30Z</time>
      </trkpt>
      <trkpt lat="44.7097" lon="6.90121">
        <ele>2427</ele>
        <time>2022-04-06T06:57:22Z</time>
      </trkpt>
      <trkpt lat="44.70956" lon="6.90096">
        <ele>2429</ele>
        <time>2022-04-06T06:58:32Z</time>
      </trkpt>
      <trkpt lat="44.70945" lon="6.90066">
        <ele>2434</ele>
        <time>2022-04-06T07:00:52Z</time>
      </trkpt>
      <trkpt lat="44.70935" lon="6.90038">
        <ele>2433</ele>
        <time>2022-04-06T07:01:16Z</time>
      </trkpt>
      <trkpt lat="44.70924" lon="6.90009">
        <ele>2431</ele>
        <time>2022-04-06T07:01:37Z</time>
      </trkpt>
      <trkpt lat="44.70914" lon="6.8998">
        <ele>2430</ele>
        <time>2022-04-06T07:02:06Z</time>
      </trkpt>
      <trkpt lat="44.70905" lon="6.89951">
        <ele>2433</ele>
        <time>2022-04-06T07:02:36Z</time>
      </trkpt>
      <trkpt lat="44.70898" lon="6.89921">
        <ele>2436</ele>
        <time>2022-04-06T07:03:05Z</time>
      </trkpt>
      <trkpt lat="44.70885" lon="6.89894">
        <ele>2435</ele>
        <time>2022-04-06T07:05:01Z</time>
      </trkpt>
      <trkpt lat="44.70863" lon="6.89885">
        <ele>2453</ele>
        <time>2022-04-06T07:06:46Z</time>
      </trkpt>
      <trkpt lat="44.70842" lon="6.89874">
        <ele>2449</ele>
        <time>2022-04-06T07:09:29Z</time>
      </trkpt>
      <trkpt lat="44.70821" lon="6.89886">
        <ele>2507</ele>
        <time>2022-04-06T07:14:22Z</time>
      </trkpt>
      <trkpt lat="44.70799" lon="6.89875">
        <ele>2489</ele>
        <time>2022-04-06T07:19:16Z</time>
      </trkpt>
      <trkpt lat="44.70776" lon="6.89867">
        <ele>2513</ele>
        <time>2022-04-06T07:23:49Z</time>
      </trkpt>
      <trkpt lat="44.70753" lon="6.89872">
        <ele>2527</ele>
        <time>2022-04-06T07:29:28Z</time>
      </trkpt>
      <trkpt lat="44.70731" lon="6.89857">
        <ele>2536</ele>
        <time>2022-04-06T07:33:25Z</time>
      </trkpt>
      <trkpt lat="44.70708" lon="6.8986">
        <ele>2561</ele>
        <time>2022-04-06T07:36:08Z</time>
      </trkpt>
      <trkpt lat="44.7069" lon="6.8984">
        <ele>2567</ele>
        <time>2022-04-06T07:38:57Z</time>
      </trkpt>
      <trkpt lat="44.70669" lon="6.8983">
        <ele>2592</ele>
        <time>2022-04-06T07:43:00Z</time>
      </trkpt>
      <trkpt lat="44.70648" lon="6.89842">
        <ele>2623</ele>
        <time>2022-04-06T07:47:22Z</time>
      </trkpt>
      <trkpt lat="44.70629" lon="6.89824">
        <ele>2623</ele>
        <time>2022-04-06T07:49:48Z</time>
      </trkpt>
      <trkpt lat="44.70611" lon="6.89805">
        <ele>2645</ele>
        <time>2022-04-06T07:54:13Z</time>
      </trkpt>
      <trkpt lat="44.70588" lon="6.89813">
        <ele>2664</ele>
        <time>2022-04-06T08:03:00Z</time>
      </trkpt>
      <trkpt lat="44.70566" lon="6.89821">
        <ele>2679</ele>
        <time>2022-04-06T08:06:30Z</time>
      </trkpt>
      <trkpt lat="44.70543" lon="6.89826">
        <ele>2694</ele>
        <time>2022-04-06T08:10:07Z</time>
      </trkpt>
      <trkpt lat="44.70566" lon="6.89803">
        <ele>2710</ele>
        <time>2022-04-06T08:23:30Z</time>
      </trkpt>
      <trkpt lat="44.70588" lon="6.89812">
        <ele>2688</ele>
        <time>2022-04-06T08:34:03Z</time>
      </trkpt>
      <trkpt lat="44.70637" lon="6.89829">
        <ele>2660</ele>
        <time>2022-04-06T08:34:20Z</time>
      </trkpt>
      <trkpt lat="44.7066" lon="6.89818">
        <ele>2633</ele>
        <time>2022-04-06T08:35:46Z</time>
      </trkpt>
      <trkpt lat="44.70682" lon="6.89832">
        <ele>2626</ele>
        <time>2022-04-06T08:37:14Z</time>
      </trkpt>
      <trkpt lat="44.70757" lon="6.89853">
        <ele>2625</ele>
        <time>2022-04-06T08:37:25Z</time>
      </trkpt>
      <trkpt lat="44.70781" lon="6.8986">
        <ele>2622</ele>
        <time>2022-04-06T08:37:29Z</time>
      </trkpt>
      <trkpt lat="44.70803" lon="6.89871">
        <ele>2620</ele>
        <time>2022-04-06T08:37:33Z</time>
      </trkpt>
      <trkpt lat="44.7083" lon="6.89871">
        <ele>2617</ele>
        <time>2022-04-06T08:37:37Z</time>
      </trkpt>
      <trkpt lat="44.70857" lon="6.89875">
        <ele>2614</ele>
        <time>2022-04-06T08:37:41Z</time>
      </trkpt>
      <trkpt lat="44.7088" lon="6.89874">
        <ele>2611</ele>
        <time>2022-04-06T08:37:44Z</time>
      </trkpt>
      <trkpt lat="44.70904" lon="6.89873">
        <ele>2608</ele>
        <time>2022-04-06T08:37:47Z</time>
      </trkpt>
      <trkpt lat="44.70931" lon="6.89863">
        <ele>2604</ele>
        <time>2022-04-06T08:37:51Z</time>
      </trkpt>
      <trkpt lat="44.70918" lon="6.89836">
        <ele>2580</ele>
        <time>2022-04-06T08:38:44Z</time>
      </trkpt>
      <trkpt lat="44.70928" lon="6.89867">
        <ele>2556</ele>
        <time>2022-04-06T08:39:18Z</time>
      </trkpt>
      <trkpt lat="44.70953" lon="6.89881">
        <ele>2542</ele>
        <time>2022-04-06T08:39:22Z</time>
      </trkpt>
      <trkpt lat="44.70982" lon="6.89892">
        <ele>2532</ele>
        <time>2022-04-06T08:39:26Z</time>
      </trkpt>
      <trkpt lat="44.71005" lon="6.899">
        <ele>2525</ele>
        <time>2022-04-06T08:39:29Z</time>
      </trkpt>
      <trkpt lat="44.71027" lon="6.89911">
        <ele>2518</ele>
        <time>2022-04-06T08:39:32Z</time>
      </trkpt>
      <trkpt lat="44.71053" lon="6.8993">
        <ele>2511</ele>
        <time>2022-04-06T08:39:35Z</time>
      </trkpt>
      <trkpt lat="44.71083" lon="6.89945">
        <ele>2505</ele>
        <time>2022-04-06T08:39:38Z</time>
      </trkpt>
      <trkpt lat="44.71108" lon="6.89945">
        <ele>2499</ele>
        <time>2022-04-06T08:39:40Z</time>
      </trkpt>
      <trkpt lat="44.71132" lon="6.89944">
        <ele>2494</ele>
        <time>2022-04-06T08:39:42Z</time>
      </trkpt>
      <trkpt lat="44.71161" lon="6.89939">
        <ele>2487</ele>
        <time>2022-04-06T08:39:45Z</time>
      </trkpt>
      <trkpt lat="44.71189" lon="6.89939">
        <ele>2479</ele>
        <time>2022-04-06T08:39:48Z</time>
      </trkpt>
      <trkpt lat="44.71212" lon="6.89933">
        <ele>2470</ele>
        <time>2022-04-06T08:39:51Z</time>
      </trkpt>
      <trkpt lat="44.7124" lon="6.89944">
        <ele>2462</ele>
        <time>2022-04-06T08:39:54Z</time>
      </trkpt>
      <trkpt lat="44.71269" lon="6.89953">
        <ele>2454</ele>
        <time>2022-04-06T08:39:57Z</time>
      </trkpt>
      <trkpt lat="44.71292" lon="6.89969">
        <ele>2446</ele>
        <time>2022-04-06T08:40:00Z</time>
      </trkpt>
      <trkpt lat="44.71278" lon="6.89993">
        <ele>2431</ele>
        <time>2022-04-06T08:40:14Z</time>
      </trkpt>
      <trkpt lat="44.71208" lon="6.90011">
        <ele>2376</ele>
        <time>2022-04-06T08:41:27Z</time>
      </trkpt>
      <trkpt lat="44.71233" lon="6.90005">
        <ele>2342</ele>
        <time>2022-04-06T08:42:59Z</time>
      </trkpt>
      <trkpt lat="44.71284" lon="6.90037">
        <ele>2339</ele>
        <time>2022-04-06T08:43:06Z</time>
      </trkpt>
      <trkpt lat="44.71316" lon="6.90043">
        <ele>2336</ele>
        <time>2022-04-06T08:43:09Z</time>
      </trkpt>
      <trkpt lat="44.71346" lon="6.90051">
        <ele>2334</ele>
        <time>2022-04-06T08:43:12Z</time>
      </trkpt>
      <trkpt lat="44.71374" lon="6.90054">
        <ele>2331</ele>
        <time>2022-04-06T08:43:15Z</time>
      </trkpt>
      <trkpt lat="44.71372" lon="6.90088">
        <ele>2282</ele>
        <time>2022-04-06T08:44:22Z</time>
      </trkpt>
      <trkpt lat="44.71357" lon="6.90115">
        <ele>2269</ele>
        <time>2022-04-06T08:44:39Z</time>
      </trkpt>
      <trkpt lat="44.71381" lon="6.90116">
        <ele>2227</ele>
        <time>2022-04-06T08:45:49Z</time>
      </trkpt>
      <trkpt lat="44.71404" lon="6.90118">
        <ele>2222</ele>
        <time>2022-04-06T08:45:58Z</time>
      </trkpt>
      <trkpt lat="44.71381" lon="6.90134">
        <ele>2208</ele>
        <time>2022-04-06T08:46:55Z</time>
      </trkpt>
      <trkpt lat="44.71362" lon="6.90115">
        <ele>2158</ele>
        <time>2022-04-06T08:50:28Z</time>
      </trkpt>
      <trkpt lat="44.71384" lon="6.90121">
        <ele>2153</ele>
        <time>2022-04-06T08:52:35Z</time>
      </trkpt>
      <trkpt lat="44.71387" lon="6.90153">
        <ele>2151</ele>
        <time>2022-04-06T08:56:10Z</time>
      </trkpt>
      <trkpt lat="44.71411" lon="6.90166">
        <ele>2142</ele>
        <time>2022-04-06T08:56:48Z</time>
      </trkpt>
      <trkpt lat="44.71438" lon="6.90183">
        <ele>2141</ele>
        <time>2022-04-06T08:56:52Z</time>
      </trkpt>
      <trkpt lat="44.71458" lon="6.90202">
        <ele>2139</ele>
        <time>2022-04-06T08:56:56Z</time>
      </trkpt>
      <trkpt lat="44.71479" lon="6.90216">
        <ele>2134</ele>
        <time>2022-04-06T08:57:07Z</time>
      </trkpt>
      <trkpt lat="44.71487" lon="6.90246">
        <ele>2106</ele>
        <time>2022-04-06T08:58:11Z</time>
      </trkpt>
      <trkpt lat="44.71509" lon="6.90256">
        <ele>2105</ele>
        <time>2022-04-06T08:58:34Z</time>
      </trkpt>
      <trkpt lat="44.71527" lon="6.90281">
        <ele>2100</ele>
        <time>2022-04-06T08:58:42Z</time>
      </trkpt>
      <trkpt lat="44.71542" lon="6.90307">
        <ele>2090</ele>
        <time>2022-04-06T08:58:52Z</time>
      </trkpt>
      <trkpt lat="44.71565" lon="6.90316">
        <ele>2080</ele>
        <time>2022-04-06T08:58:58Z</time>
      </trkpt>
      <trkpt lat="44.71582" lon="6.90344">
        <ele>2071</ele>
        <time>2022-04-06T08:59:04Z</time>
      </trkpt>
      <trkpt lat="44.71592" lon="6.90373">
        <ele>2062</ele>
        <time>2022-04-06T08:59:10Z</time>
      </trkpt>
      <trkpt lat="44.71599" lon="6.90408">
        <ele>2054</ele>
        <time>2022-04-06T08:59:36Z</time>
      </trkpt>
      <trkpt lat="44.71606" lon="6.90443">
        <ele>2050</ele>
        <time>2022-04-06T08:59:42Z</time>
      </trkpt>
      <trkpt lat="44.71631" lon="6.90461">
        <ele>2044</ele>
        <time>2022-04-06T08:59:49Z</time>
      </trkpt>
      <trkpt lat="44.71654" lon="6.90459">
        <ele>2036</ele>
        <time>2022-04-06T08:59:55Z</time>
      </trkpt>
      <trkpt lat="44.71677" lon="6.90446">
        <ele>2029</ele>
        <time>2022-04-06T08:59:59Z</time>
      </trkpt>
      <trkpt lat="44.71701" lon="6.90434">
        <ele>2022</ele>
        <time>2022-04-06T09:00:02Z</time>
      </trkpt>
      <trkpt lat="44.71727" lon="6.90424">
        <ele>2012</ele>
        <time>2022-04-06T09:00:07Z</time>
      </trkpt>
      <trkpt lat="44.71752" lon="6.90431">
        <ele>2004</ele>
        <time>2022-04-06T09:00:11Z</time>
      </trkpt>
      <trkpt lat="44.71781" lon="6.90431">
        <ele>1999</ele>
        <time>2022-04-06T09:00:15Z</time>
      </trkpt>
      <trkpt lat="44.71805" lon="6.90428">
        <ele>1997</ele>
        <time>2022-04-06T09:00:18Z</time>
      </trkpt>
      <trkpt lat="44.71828" lon="6.90409">
        <ele>1993</ele>
        <time>2022-04-06T09:00:22Z</time>
      </trkpt>
      <trkpt lat="44.71848" lon="6.90391">
        <ele>1989</ele>
        <time>2022-04-06T09:00:25Z</time>
      </trkpt>
      <trkpt lat="44.71862" lon="6.90356">
        <ele>1985</ele>
        <time>2022-04-06T09:00:29Z</time>
      </trkpt>
      <trkpt lat="44.71888" lon="6.90362">
        <ele>1982</ele>
        <time>2022-04-06T09:00:33Z</time>
      </trkpt>
      <trkpt lat="44.71908" lon="6.90376">
        <ele>1981</ele>
        <time>2022-04-06T09:00:40Z</time>
      </trkpt>
      <trkpt lat="44.71899" lon="6.90406">
        <ele>1979</ele>
        <time>2022-04-06T09:01:53Z</time>
      </trkpt>
    </trkseg>
  </trk>
</gpx>